createdAt,value
2022-08-28T00:01:57.723Z,14.25
2022-08-28T00:04:24.920Z,13.98
2022-08-28T00:06:51.940Z,15.63
2022-08-28T00:09:19.039Z,18.17
2022-08-28T00:11:47.315Z,13.57
2022-08-28T00:14:14.561Z,17.48
2022-08-28T00:16:42.231Z,16.30
2022-08-28T00:19:11.002Z,18.08
2022-08-28T00:21:38.319Z,14.65
2022-08-28T00:24:05.324Z,22.38
2022-08-28T00:26:51.160Z,17.30
2022-08-28T00:29:18.001Z,22.50
2022-08-28T00:31:45.079Z,14.57
2022-08-28T00:34:12.540Z,17.92
2022-08-28T00:36:41.481Z,16.88
2022-08-28T00:39:09.623Z,15.32
2022-08-28T00:41:41.197Z,15.67
2022-08-28T00:44:19.076Z,15.43
2022-08-28T00:46:49.557Z,19.98
2022-08-28T00:49:21.207Z,16.15
2022-08-28T00:52:11.831Z,19.70
2022-08-28T00:54:59.510Z,14.45
2022-08-28T00:57:41.006Z,18.27
2022-08-28T01:00:14.099Z,15.27
2022-08-28T01:02:41.198Z,12.73
2022-08-28T01:05:09.840Z,16.83
2022-08-28T01:07:38.136Z,20.80
2022-08-28T01:10:09.682Z,19.95
2022-08-28T01:12:37.252Z,11.00
2022-08-28T01:15:14.046Z,16.38
2022-08-28T01:17:48.073Z,20.38
2022-08-28T01:20:19.692Z,18.42
2022-08-28T01:23:14.203Z,14.20
2022-08-28T01:25:42.585Z,19.45
2022-08-28T01:28:12.676Z,15.90
2022-08-28T01:30:45.406Z,16.15
2022-08-28T01:33:14.852Z,13.82
2022-08-28T01:35:45.812Z,17.20
2022-08-28T01:38:12.857Z,17.30
2022-08-28T01:40:48.908Z,16.05
2022-08-28T01:45:47.507Z,18.08
2022-08-28T01:48:16.124Z,17.27
2022-08-28T01:50:44.020Z,15.80
2022-08-28T01:53:15.719Z,17.38
2022-08-28T01:55:44.028Z,11.68
2022-08-28T01:58:12.271Z,18.40
2022-08-28T02:00:40.038Z,12.07
2022-08-28T02:03:07.152Z,15.27
2022-08-28T02:05:34.989Z,14.30
2022-08-28T02:08:04.951Z,13.25
2022-08-28T02:10:34.016Z,13.73
2022-08-28T02:13:01.527Z,15.48
2022-08-28T02:15:30.565Z,13.95
2022-08-28T02:17:58.281Z,19.27
2022-08-28T02:20:25.730Z,14.68
2022-08-28T02:22:53.031Z,17.27
2022-08-28T02:25:20.124Z,16.30
2022-08-28T02:27:47.015Z,14.00
2022-08-28T02:30:15.457Z,22.10
2022-08-28T02:32:44.451Z,19.80
2022-08-28T02:35:13.326Z,15.20
2022-08-28T02:37:44.344Z,16.85
2022-08-28T02:43:08.643Z,15.73
2022-08-28T02:45:36.150Z,18.75
2022-08-28T02:48:03.319Z,20.10
2022-08-28T02:50:31.567Z,18.67
2022-08-28T02:52:58.746Z,15.43
2022-08-28T02:55:25.832Z,12.75
2022-08-28T02:57:53.002Z,20.35
2022-08-28T03:00:23.604Z,16.50
2022-08-28T03:02:51.248Z,16.55
2022-08-28T03:05:21.125Z,14.57
2022-08-28T03:07:49.415Z,19.92
2022-08-28T03:10:16.431Z,14.23
2022-08-28T03:12:43.585Z,17.30
2022-08-28T03:15:11.406Z,18.52
2022-08-28T03:17:39.146Z,17.10
2022-08-28T03:20:09.532Z,16.65
2022-08-28T03:22:55.535Z,19.00
2022-08-28T03:25:23.291Z,20.15
2022-08-28T03:27:50.875Z,14.88
2022-08-28T03:30:18.970Z,15.65
2022-08-28T03:32:45.934Z,15.88
2022-08-28T03:35:13.316Z,22.65
2022-08-28T03:37:40.409Z,17.85
2022-08-28T03:40:08.791Z,18.60
2022-08-28T03:42:36.076Z,14.63
2022-08-28T03:45:05.504Z,15.48
2022-08-28T03:47:32.339Z,13.32
2022-08-28T03:50:00.319Z,14.23
2022-08-28T03:52:27.258Z,12.75
2022-08-28T03:54:54.361Z,24.98
2022-08-28T03:57:22.600Z,19.60
2022-08-28T03:59:51.574Z,15.93
2022-08-28T04:02:20.661Z,18.13
2022-08-28T04:07:18.966Z,13.30
2022-08-28T04:09:46.970Z,12.65
2022-08-28T04:12:15.261Z,14.40
2022-08-28T04:14:42.295Z,16.63
2022-08-28T04:17:10.009Z,17.65
2022-08-28T04:19:38.078Z,17.27
2022-08-28T04:22:04.940Z,13.32
2022-08-28T04:24:31.786Z,12.50
2022-08-28T04:26:58.979Z,13.15
2022-08-28T04:29:25.918Z,15.38
2022-08-28T04:31:53.118Z,13.68
2022-08-28T04:34:20.223Z,12.88
2022-08-28T04:36:50.121Z,17.52
2022-08-28T04:39:17.224Z,15.50
2022-08-28T04:41:44.310Z,15.70
2022-08-28T04:44:11.203Z,18.27
2022-08-28T04:46:38.624Z,18.80
2022-08-28T04:49:06.029Z,17.77
2022-08-28T04:51:33.432Z,13.70
2022-08-28T04:54:02.633Z,14.32
2022-08-28T04:56:29.822Z,13.30
2022-08-28T04:58:56.691Z,17.17
2022-08-28T05:01:24.945Z,16.58
2022-08-28T05:03:57.906Z,13.90
2022-08-28T05:06:29.289Z,13.23
2022-08-28T05:08:59.164Z,21.02
2022-08-28T05:11:33.762Z,14.13
2022-08-28T05:14:15.914Z,18.13
2022-08-28T05:16:53.046Z,19.88
2022-08-28T05:19:21.239Z,15.80
2022-08-28T05:21:49.422Z,12.13
2022-08-28T05:24:16.283Z,15.88
2022-08-28T05:26:43.330Z,11.20
2022-08-28T05:29:11.240Z,15.52
2022-08-28T05:31:40.376Z,23.45
2022-08-28T05:36:36.755Z,19.92
2022-08-28T05:39:07.179Z,22.50
2022-08-28T05:41:34.764Z,18.67
2022-08-28T05:44:04.866Z,14.38
2022-08-28T05:46:32.379Z,17.40
2022-08-28T05:49:00.573Z,18.48
2022-08-28T05:51:28.576Z,12.05
2022-08-28T05:53:57.768Z,12.82
2022-08-28T05:56:31.047Z,12.75
2022-08-28T05:59:00.193Z,15.55
2022-08-28T06:01:33.876Z,13.38
2022-08-28T06:04:03.472Z,9.95
2022-08-28T06:06:34.489Z,17.73
2022-08-28T06:09:08.758Z,12.60
2022-08-28T06:11:36.025Z,14.50
2022-08-28T06:14:04.567Z,12.75
2022-08-28T06:16:32.578Z,11.95
2022-08-28T06:19:00.770Z,14.15
2022-08-28T06:21:29.421Z,13.98
2022-08-28T06:23:56.475Z,16.10
2022-08-28T06:26:23.991Z,11.68
2022-08-28T06:28:53.169Z,16.00
2022-08-28T06:31:24.548Z,12.43
2022-08-28T06:33:57.837Z,11.30
2022-08-28T06:36:27.612Z,13.13
2022-08-28T06:38:58.235Z,14.68
2022-08-28T06:41:26.590Z,18.45
2022-08-28T06:43:54.134Z,12.98
2022-08-28T06:46:22.049Z,12.85
2022-08-28T06:48:49.014Z,14.95
2022-08-28T06:51:15.850Z,17.45
2022-08-28T06:53:44.650Z,15.23
2022-08-28T06:56:25.709Z,17.15
2022-08-28T06:58:56.826Z,14.75
2022-08-28T07:01:33.022Z,10.93
2022-08-28T07:04:09.054Z,21.50
2022-08-28T07:06:38.999Z,15.75
2022-08-28T07:09:08.540Z,17.25
2022-08-28T07:11:36.777Z,16.02
2022-08-28T07:14:04.954Z,12.30
2022-08-28T07:16:35.539Z,12.40
2022-08-28T07:19:05.013Z,11.02
2022-08-28T07:21:36.930Z,14.00
2022-08-28T07:24:07.102Z,15.40
2022-08-28T07:26:34.972Z,12.25
2022-08-28T07:31:44.058Z,12.48
2022-08-28T07:34:12.504Z,12.30
2022-08-28T07:39:08.022Z,14.80
2022-08-28T07:41:39.058Z,12.40
2022-08-28T07:44:26.420Z,13.75
2022-08-28T07:46:55.634Z,12.95
2022-08-28T07:49:23.393Z,14.88
2022-08-28T07:51:50.239Z,9.88
2022-08-28T07:54:22.614Z,13.30
2022-08-28T07:56:50.768Z,14.02
2022-08-28T07:59:19.431Z,14.27
2022-08-28T08:04:16.373Z,13.65
2022-08-28T08:06:44.289Z,12.13
2022-08-28T08:09:14.692Z,15.50
2022-08-28T08:11:42.760Z,11.45
2022-08-28T08:14:10.107Z,12.10
2022-08-28T08:16:39.755Z,13.68
2022-08-28T08:19:10.123Z,11.65
2022-08-28T08:21:37.533Z,11.88
2022-08-28T08:24:05.272Z,13.85
2022-08-28T08:26:33.695Z,12.02
2022-08-28T08:29:01.093Z,12.50
2022-08-28T08:31:32.728Z,13.70
2022-08-28T08:34:03.620Z,12.15
2022-08-28T08:36:32.792Z,30.98
2022-08-28T08:39:00.736Z,18.58
2022-08-28T08:41:48.427Z,12.88
2022-08-28T08:44:40.895Z,13.32
2022-08-28T08:47:19.497Z,15.85
2022-08-28T08:49:52.455Z,14.25
2022-08-28T08:52:44.062Z,14.77
2022-08-28T08:55:25.954Z,13.80
2022-08-28T08:58:16.625Z,14.32
2022-08-28T09:00:52.784Z,15.32
2022-08-28T09:03:25.176Z,10.10
2022-08-28T09:05:56.955Z,15.20
2022-08-28T09:08:30.835Z,11.43
2022-08-28T09:11:07.150Z,9.93
2022-08-28T09:13:37.013Z,15.32
2022-08-28T09:16:13.030Z,11.15
2022-08-28T09:18:40.554Z,11.55
2022-08-28T09:21:07.370Z,11.53
2022-08-28T09:23:34.326Z,12.23
2022-08-28T09:26:09.349Z,14.95
2022-08-28T09:31:20.074Z,12.52
2022-08-28T09:33:51.352Z,9.57
2022-08-28T09:36:34.459Z,15.73
2022-08-28T09:39:32.073Z,11.80
2022-08-28T09:42:32.768Z,8.18
2022-08-28T09:44:59.890Z,12.27
2022-08-28T09:47:46.271Z,9.98
2022-08-28T09:50:21.565Z,9.98
2022-08-28T09:52:49.689Z,9.05
2022-08-28T09:55:33.567Z,11.70
2022-08-28T09:58:01.330Z,13.43
2022-08-28T10:00:34.201Z,11.15
2022-08-28T10:03:14.598Z,12.48
2022-08-28T10:05:58.343Z,12.63
2022-08-28T10:08:57.667Z,7.45
2022-08-28T10:11:34.225Z,11.48
2022-08-28T10:14:15.125Z,10.63
2022-08-28T10:17:25.230Z,11.98
2022-08-28T10:20:14.070Z,13.98
2022-08-28T10:23:01.295Z,10.70
2022-08-28T10:25:44.184Z,21.65
2022-08-28T10:28:24.092Z,9.57
2022-08-28T10:30:56.128Z,9.02
2022-08-28T10:33:45.745Z,17.10
2022-08-28T10:36:33.973Z,15.20
2022-08-28T10:39:12.296Z,8.82
2022-08-28T10:41:55.832Z,14.73
2022-08-28T10:44:41.405Z,12.55
2022-08-28T10:47:10.243Z,12.27
2022-08-28T10:49:49.088Z,10.35
2022-08-28T10:52:32.427Z,7.55
2022-08-28T10:55:02.203Z,9.60
2022-08-28T10:57:36.117Z,9.15
2022-08-28T11:00:14.637Z,11.00
2022-08-28T11:02:45.988Z,10.30
2022-08-28T11:05:13.512Z,9.05
2022-08-28T11:07:54.472Z,15.15
2022-08-28T11:10:36.493Z,8.57
2022-08-28T11:13:06.368Z,12.73
2022-08-28T11:15:37.109Z,12.02
2022-08-28T11:18:16.447Z,9.90
2022-08-28T11:20:56.272Z,7.53
2022-08-28T11:23:35.403Z,8.68
2022-08-28T11:26:06.600Z,9.25
2022-08-28T11:28:36.462Z,12.15
2022-08-28T11:31:06.275Z,9.75
2022-08-28T11:33:52.985Z,6.85
2022-08-28T11:36:19.939Z,11.55
2022-08-28T11:38:52.918Z,13.07
2022-08-28T11:41:29.493Z,9.55
2022-08-28T11:44:12.608Z,10.50
2022-08-28T11:46:43.468Z,13.55
2022-08-28T11:49:33.646Z,17.25
2022-08-28T11:52:18.104Z,10.68
2022-08-28T11:55:07.020Z,14.15
2022-08-28T11:57:54.274Z,12.50
2022-08-28T12:00:33.034Z,9.83
2022-08-28T12:03:11.263Z,9.77
2022-08-28T12:08:09.011Z,11.80
2022-08-28T12:10:35.806Z,9.55
2022-08-28T12:13:05.356Z,12.60
2022-08-28T12:15:32.405Z,8.93
2022-08-28T12:18:05.711Z,14.93
2022-08-28T12:20:35.704Z,10.77
2022-08-28T12:23:24.728Z,12.80
2022-08-28T12:26:01.767Z,14.45
2022-08-28T12:28:51.940Z,12.10
2022-08-28T12:32:05.235Z,9.52
2022-08-28T12:34:58.181Z,11.93
2022-08-28T12:37:52.278Z,10.90
2022-08-28T12:40:38.332Z,8.32
2022-08-28T12:43:08.126Z,9.40
2022-08-28T12:45:42.796Z,10.23
2022-08-28T12:48:24.438Z,8.20
2022-08-28T12:51:08.579Z,9.20
2022-08-28T12:53:47.550Z,9.82
2022-08-28T12:56:17.890Z,12.55
2022-08-28T12:58:46.045Z,9.63
2022-08-28T13:01:27.490Z,11.27
2022-08-28T13:04:02.005Z,10.93
2022-08-28T13:06:39.147Z,6.85
2022-08-28T13:09:14.238Z,9.77
2022-08-28T13:11:47.320Z,10.88
2022-08-28T13:14:34.332Z,11.00
2022-08-28T13:17:01.300Z,14.95
2022-08-28T13:19:30.946Z,8.82
2022-08-28T13:22:28.530Z,8.38
2022-08-28T13:25:00.430Z,10.83
2022-08-28T13:27:27.680Z,10.88
2022-08-28T13:30:24.692Z,10.10
2022-08-28T13:32:58.155Z,11.43
2022-08-28T13:35:25.125Z,8.82
2022-08-28T13:37:54.531Z,8.52
2022-08-28T13:43:16.360Z,14.30
2022-08-28T13:45:45.951Z,9.23
2022-08-28T13:48:21.129Z,9.13
2022-08-28T13:50:52.799Z,12.07
2022-08-28T13:53:21.454Z,10.48
2022-08-28T13:55:50.762Z,7.43
2022-08-28T13:58:17.945Z,11.15
2022-08-28T14:00:47.435Z,9.30
2022-08-28T14:03:33.468Z,11.45
2022-08-28T14:06:00.835Z,7.07
2022-08-28T14:08:27.626Z,7.57
2022-08-28T14:10:54.520Z,8.02
2022-08-28T14:13:23.354Z,6.47
2022-08-28T14:15:50.293Z,6.20
2022-08-28T14:18:18.207Z,4.38
2022-08-28T14:20:45.360Z,5.63
2022-08-28T14:23:12.559Z,5.80
2022-08-28T14:25:43.960Z,3.72
2022-08-28T14:28:12.089Z,6.05
2022-08-28T14:30:44.017Z,6.65
2022-08-28T14:33:11.288Z,6.70
2022-08-28T14:35:40.772Z,5.30
2022-08-28T14:38:10.598Z,5.05
2022-08-28T14:40:43.197Z,6.03
2022-08-28T14:43:12.041Z,4.03
2022-08-28T14:45:46.860Z,3.85
2022-08-28T14:48:15.004Z,5.13
2022-08-28T14:50:44.064Z,3.28
2022-08-28T14:53:11.151Z,5.88
2022-08-28T14:55:56.163Z,3.88
2022-08-28T14:58:23.000Z,4.85
2022-08-28T15:00:50.883Z,5.15
2022-08-28T15:03:19.723Z,4.35
2022-08-28T15:05:46.565Z,6.70
2022-08-28T15:08:17.226Z,5.97
2022-08-28T15:10:45.003Z,4.70
2022-08-28T15:13:12.803Z,4.15
2022-08-28T15:15:41.347Z,6.68
2022-08-28T15:18:10.324Z,6.63
2022-08-28T15:20:42.940Z,7.30
2022-08-28T15:23:11.517Z,3.40
2022-08-28T15:25:38.483Z,5.05
2022-08-28T15:28:05.847Z,7.18
2022-08-28T15:30:32.813Z,6.28
2022-08-28T15:32:59.921Z,5.60
2022-08-28T15:35:26.984Z,6.30
2022-08-28T15:37:54.264Z,7.65
2022-08-28T15:40:40.178Z,6.03
2022-08-28T15:43:07.416Z,6.43
2022-08-28T15:45:39.261Z,6.75
2022-08-28T15:48:06.911Z,4.53
2022-08-28T15:50:34.230Z,6.25
2022-08-28T15:53:01.847Z,6.18
2022-08-28T15:55:28.952Z,6.32
2022-08-28T15:57:56.295Z,6.20
2022-08-28T16:00:23.500Z,7.97
2022-08-28T16:02:50.319Z,6.18
2022-08-28T16:05:17.487Z,7.07
2022-08-28T16:07:44.945Z,13.98
2022-08-28T16:10:13.807Z,10.50
2022-08-28T16:12:41.116Z,9.40
2022-08-28T16:15:09.448Z,9.02
2022-08-28T16:17:36.327Z,9.73
2022-08-28T16:20:06.700Z,7.00
2022-08-28T16:22:39.539Z,6.95
2022-08-28T16:25:07.598Z,4.90
2022-08-28T16:27:34.436Z,4.88
2022-08-28T16:30:03.391Z,6.70
2022-08-28T16:32:30.540Z,8.57
2022-08-28T16:34:58.355Z,6.30
2022-08-28T16:37:26.128Z,5.88
2022-08-28T16:40:06.674Z,7.00
2022-08-28T16:42:33.573Z,8.35
2022-08-28T16:45:00.687Z,5.75
2022-08-28T16:47:31.742Z,6.45
2022-08-28T16:50:05.927Z,8.38
2022-08-28T16:52:33.118Z,6.57
2022-08-28T16:55:00.083Z,11.65
2022-08-28T16:57:27.587Z,7.88
2022-08-28T16:59:54.674Z,13.13
2022-08-28T17:02:26.694Z,18.00
2022-08-28T17:05:00.490Z,20.35
2022-08-28T17:07:28.476Z,52.58
2022-08-28T17:09:55.661Z,68.40
2022-08-28T17:12:22.615Z,74.65
2022-08-28T17:14:49.724Z,89.78
2022-08-28T17:17:16.591Z,138.18
2022-08-28T17:19:43.421Z,114.13
2022-08-28T17:22:29.354Z,76.40
2022-08-28T17:24:56.259Z,38.05
2022-08-28T17:27:23.357Z,22.23
2022-08-28T17:29:50.688Z,24.02
2022-08-28T17:32:17.669Z,25.80
2022-08-28T17:34:45.246Z,18.80
2022-08-28T17:37:12.137Z,28.75
2022-08-28T17:39:39.128Z,28.17
2022-08-28T17:42:06.299Z,21.65
2022-08-28T17:44:35.329Z,20.92
2022-08-28T17:47:02.415Z,17.13
2022-08-28T17:49:29.574Z,16.13
2022-08-28T17:51:56.485Z,20.75
2022-08-28T17:54:24.459Z,14.00
2022-08-28T17:56:54.474Z,15.60
2022-08-28T17:59:22.803Z,14.30
2022-08-28T18:01:50.099Z,17.35
2022-08-28T18:04:23.918Z,17.65
2022-08-28T18:06:54.478Z,22.95
2022-08-28T18:09:23.534Z,19.50
2022-08-28T18:11:51.122Z,19.65
2022-08-28T18:14:18.100Z,20.90
2022-08-28T18:16:45.144Z,22.27
2022-08-28T18:19:12.082Z,15.80
2022-08-28T18:21:40.425Z,21.98
2022-08-28T18:24:08.563Z,13.98
2022-08-28T18:26:35.395Z,14.32
2022-08-28T18:29:02.216Z,13.25
2022-08-28T18:31:30.773Z,14.65
2022-08-28T18:33:58.350Z,13.00
2022-08-28T18:36:43.530Z,13.05
2022-08-28T18:39:10.886Z,14.57
2022-08-28T18:41:43.492Z,15.23
2022-08-28T18:44:13.531Z,17.75
2022-08-28T18:46:40.643Z,11.10
2022-08-28T18:49:07.556Z,14.27
2022-08-28T18:51:34.615Z,13.55
2022-08-28T18:54:02.955Z,10.93
2022-08-28T18:56:32.165Z,9.63
2022-08-28T18:59:00.688Z,11.82
2022-08-28T19:01:28.464Z,14.65
2022-08-28T19:03:55.643Z,11.02
2022-08-28T19:06:23.412Z,11.63
2022-08-28T19:08:50.290Z,11.23
2022-08-28T19:11:17.817Z,11.98
2022-08-28T19:13:45.036Z,14.10
2022-08-28T19:16:17.316Z,13.55
2022-08-28T19:18:45.815Z,12.82
2022-08-28T19:21:19.679Z,11.18
2022-08-28T19:23:55.986Z,13.15
2022-08-28T19:26:26.937Z,14.27
2022-08-28T19:28:55.173Z,15.38
2022-08-28T19:31:23.014Z,14.45
2022-08-28T19:33:50.768Z,14.07
2022-08-28T19:36:18.664Z,17.60
2022-08-28T19:38:45.821Z,16.55
2022-08-28T19:41:14.544Z,13.48
2022-08-28T19:43:43.414Z,14.30
2022-08-28T19:46:18.600Z,11.63
2022-08-28T19:48:51.797Z,13.15
2022-08-28T19:51:22.661Z,11.02
2022-08-28T19:53:57.280Z,13.88
2022-08-28T19:56:29.953Z,13.57
2022-08-28T19:58:59.332Z,14.50
2022-08-28T20:03:58.182Z,11.80
2022-08-28T20:06:25.662Z,16.48
2022-08-28T20:08:52.507Z,15.00
2022-08-28T20:11:30.298Z,13.13
2022-08-28T20:14:04.048Z,12.88
2022-08-28T20:16:35.326Z,13.32
2022-08-28T20:19:04.001Z,12.15
2022-08-28T20:21:37.078Z,12.38
2022-08-28T20:24:12.077Z,14.82
2022-08-28T20:26:39.575Z,10.48
2022-08-28T20:29:08.598Z,12.00
2022-08-28T20:31:40.496Z,17.00
2022-08-28T20:34:09.239Z,14.95
2022-08-28T20:36:36.232Z,15.55
2022-08-28T20:39:07.182Z,15.68
2022-08-28T20:41:34.859Z,14.65
2022-08-28T20:44:05.040Z,12.40
2022-08-28T20:46:37.045Z,14.07
2022-08-28T20:49:08.111Z,15.95
2022-08-28T20:51:53.349Z,18.98
2022-08-28T20:54:22.197Z,16.92
2022-08-28T20:56:51.026Z,14.38
2022-08-28T20:59:19.504Z,19.33
2022-08-28T21:01:46.733Z,15.27
2022-08-28T21:04:13.603Z,12.95
2022-08-28T21:06:40.463Z,14.15
2022-08-28T21:09:07.474Z,15.00
2022-08-28T21:11:34.333Z,15.25
2022-08-28T21:14:01.133Z,14.35
2022-08-28T21:16:28.278Z,17.25
2022-08-28T21:19:14.636Z,18.88
2022-08-28T21:21:42.857Z,20.98
2022-08-28T21:24:12.219Z,15.65
2022-08-28T21:29:11.395Z,13.50
2022-08-28T21:31:40.919Z,13.23
2022-08-28T21:34:09.520Z,12.23
2022-08-28T21:36:38.221Z,11.90
2022-08-28T21:39:05.949Z,13.20
2022-08-28T21:41:33.096Z,12.30
2022-08-28T21:44:00.333Z,14.38
2022-08-28T21:46:27.874Z,15.38
2022-08-28T21:48:56.305Z,11.15
2022-08-28T21:51:24.693Z,12.23
2022-08-28T21:53:52.966Z,14.27
2022-08-28T21:56:24.085Z,10.68
2022-08-28T21:58:52.569Z,13.68
2022-08-28T22:01:21.168Z,13.80
2022-08-28T22:03:48.089Z,14.10
2022-08-28T22:06:18.517Z,12.95
2022-08-28T22:08:46.744Z,11.57
2022-08-28T22:11:14.247Z,12.82
2022-08-28T22:13:44.223Z,13.75
2022-08-28T22:16:11.381Z,11.60
2022-08-28T22:18:38.318Z,13.30
2022-08-28T22:21:24.902Z,12.18
2022-08-28T22:23:51.728Z,12.32
2022-08-28T22:26:20.726Z,10.25
2022-08-28T22:28:47.880Z,15.07
2022-08-28T22:31:14.855Z,13.48
2022-08-28T22:33:43.093Z,13.70
2022-08-28T22:36:10.938Z,11.30
2022-08-28T22:38:39.681Z,13.18
2022-08-28T22:41:07.667Z,11.50
2022-08-28T22:43:35.335Z,12.93
2022-08-28T22:46:03.916Z,13.70
2022-08-28T22:48:31.506Z,12.85
2022-08-28T22:51:18.351Z,13.73
2022-08-28T22:53:46.818Z,12.00
2022-08-28T22:56:14.600Z,11.32
2022-08-28T22:58:41.699Z,11.68
2022-08-28T23:01:13.959Z,12.07
2022-08-28T23:03:41.268Z,13.73
2022-08-28T23:06:08.385Z,11.23
2022-08-28T23:08:35.492Z,13.00
2022-08-28T23:11:03.180Z,14.88
2022-08-28T23:13:30.898Z,12.25
2022-08-28T23:15:58.399Z,10.73
2022-08-28T23:18:25.503Z,14.40
2022-08-28T23:20:55.340Z,12.48
2022-08-28T23:23:23.844Z,15.70
2022-08-28T23:25:50.766Z,14.13
2022-08-28T23:28:18.445Z,15.07
2022-08-28T23:30:48.475Z,12.63
2022-08-28T23:33:23.737Z,11.40
2022-08-28T23:35:52.120Z,12.10
2022-08-28T23:38:19.526Z,11.80
2022-08-28T23:40:48.267Z,12.70
2022-08-28T23:43:17.963Z,10.32
2022-08-28T23:45:45.106Z,10.98
2022-08-28T23:48:12.349Z,12.48
2022-08-28T23:50:42.195Z,13.32
2022-08-28T23:53:09.854Z,12.52
2022-08-28T23:55:37.422Z,12.90
2022-08-28T23:58:05.379Z,12.63
